INFORMAÇÕES METEOROLÓGICAS
METAR FOR SBSR
ADDS - METARS form results

(1422 UTC 14 December 2018)
Data provider http://aviationweather.gov/metar/data/
 
METAR text: SBSR 141400Z 04008KT CAVOK 31/16 Q1018
Conditions at: SBSR (SAO JOSE PRETO , BR) observed 1400 UTC 14 December 2018
Temperature: 31.0°C (88°F)
Dewpoint: 16.0°C (61°F) [RH = 40%]
Pressure (altimeter): 30.06 inches Hg (1018.0 mb)
Winds: from the NE (40 degrees) at 9 MPH (8 knots; 4.1 m/s)
Visibility: 6 or more miles (10+ km)
Ceiling: ceiling and visibility are OK
Clouds: unknown
Weather: no significant weather observed at this time

 MAPA DO AEROPORTO

 INFORMAÇÕES DA PISTA
Pista 7 Tamanho da pista 5381 ft Largura da pista 115 ft
Elevação da pista 0 ft Ranhura da pista 0 ft Proa da pista 0
Pista 25 Tamanho da pista 5381 ft Largura da pista 115 ft
Elevação da pista 0 ft Ranhura da pista 0 ft Proa da pista 0

 FREQUÊNCIAS DO AEROPORTO
Tipo AFIS Nome RDO Frequência 130.85 MHZ

 AUXÍLIOS DE NAVEGAÇÃO PRÓXIMOS AO AEROPORTO
Tipo NDB Nome Rio Preto Frequência 420 KHZ





Powered by Virtual Airlines Manager [v2.6.2]